sensor_id;sensor_type;location;lat;lon;timestamp;P1;durP1;ratioP1;P2;durP2;ratioP2
11568;SDS011;5840;46.894;15.542;2024-01-30T00:01:06;20.83;;;17.60;;
11568;SDS011;5840;46.894;15.542;2024-01-30T00:03:32;20.10;;;17.10;;
11568;SDS011;5840;46.894;15.542;2024-01-30T00:05:58;19.87;;;17.70;;
11568;SDS011;5840;46.894;15.542;2024-01-30T00:08:24;21.23;;;17.00;;
11568;SDS011;5840;46.894;15.542;2024-01-30T00:10:51;21.40;;;17.97;;
11568;SDS011;5840;46.894;15.542;2024-01-30T00:13:17;22.73;;;17.07;;
11568;SDS011;5840;46.894;15.542;2024-01-30T00:15:45;21.17;;;17.17;;
11568;SDS011;5840;46.894;15.542;2024-01-30T00:25:40;19.97;;;17.57;;
11568;SDS011;5840;46.894;15.542;2024-01-30T00:28:06;19.93;;;16.97;;
11568;SDS011;5840;46.894;15.542;2024-01-30T00:30:32;18.53;;;15.63;;
11568;SDS011;5840;46.894;15.542;2024-01-30T00:32:58;21.43;;;18.90;;
11568;SDS011;5840;46.894;15.542;2024-01-30T00:35:25;24.60;;;20.03;;
11568;SDS011;5840;46.894;15.542;2024-01-30T00:37:52;20.60;;;18.37;;
11568;SDS011;5840;46.894;15.542;2024-01-30T00:40:18;21.67;;;19.00;;
11568;SDS011;5840;46.894;15.542;2024-01-30T00:42:46;22.37;;;18.77;;
11568;SDS011;5840;46.894;15.542;2024-01-30T00:50:16;21.43;;;17.70;;
11568;SDS011;5840;46.894;15.542;2024-01-30T00:52:42;19.47;;;17.30;;
11568;SDS011;5840;46.894;15.542;2024-01-30T00:55:10;21.90;;;17.40;;
11568;SDS011;5840;46.894;15.542;2024-01-30T00:57:36;20.63;;;17.13;;
11568;SDS011;5840;46.894;15.542;2024-01-30T01:00:05;22.17;;;16.37;;
11568;SDS011;5840;46.894;15.542;2024-01-30T01:02:33;18.90;;;16.87;;
11568;SDS011;5840;46.894;15.542;2024-01-30T01:05:00;17.20;;;14.93;;
11568;SDS011;5840;46.894;15.542;2024-01-30T01:07:27;17.27;;;15.47;;
11568;SDS011;5840;46.894;15.542;2024-01-30T01:16:58;20.30;;;16.60;;
11568;SDS011;5840;46.894;15.542;2024-01-30T01:19:24;19.87;;;17.83;;
11568;SDS011;5840;46.894;15.542;2024-01-30T01:21:50;19.23;;;17.13;;
11568;SDS011;5840;46.894;15.542;2024-01-30T01:24:16;19.83;;;17.70;;
11568;SDS011;5840;46.894;15.542;2024-01-30T01:26:43;15.43;;;13.83;;
11568;SDS011;5840;46.894;15.542;2024-01-30T01:29:09;15.50;;;14.00;;
11568;SDS011;5840;46.894;15.542;2024-01-30T01:31:37;14.47;;;13.10;;
11568;SDS011;5840;46.894;15.542;2024-01-30T01:34:09;14.20;;;12.67;;
11568;SDS011;5840;46.894;15.542;2024-01-30T01:44:04;13.43;;;12.10;;
11568;SDS011;5840;46.894;15.542;2024-01-30T01:46:31;12.93;;;11.57;;
11568;SDS011;5840;46.894;15.542;2024-01-30T01:48:59;12.57;;;11.27;;
11568;SDS011;5840;46.894;15.542;2024-01-30T01:51:28;13.73;;;11.80;;
11568;SDS011;5840;46.894;15.542;2024-01-30T01:53:56;12.93;;;11.50;;
11568;SDS011;5840;46.894;15.542;2024-01-30T01:56:24;13.87;;;12.53;;
11568;SDS011;5840;46.894;15.542;2024-01-30T01:58:52;14.17;;;11.23;;
11568;SDS011;5840;46.894;15.542;2024-01-30T02:01:22;13.00;;;11.37;;
11568;SDS011;5840;46.894;15.542;2024-01-30T02:04:01;13.53;;;12.00;;
11568;SDS011;5840;46.894;15.542;2024-01-30T02:06:28;13.83;;;12.43;;
11568;SDS011;5840;46.894;15.542;2024-01-30T02:08:54;14.93;;;11.43;;
11568;SDS011;5840;46.894;15.542;2024-01-30T02:11:21;13.77;;;12.43;;
11568;SDS011;5840;46.894;15.542;2024-01-30T02:13:48;12.87;;;11.57;;
11568;SDS011;5840;46.894;15.542;2024-01-30T02:16:15;16.07;;;12.27;;
11568;SDS011;5840;46.894;15.542;2024-01-30T02:18:42;13.07;;;11.67;;
11568;SDS011;5840;46.894;15.542;2024-01-30T02:21:11;13.30;;;11.77;;
11568;SDS011;5840;46.894;15.542;2024-01-30T02:28:37;13.33;;;11.97;;
11568;SDS011;5840;46.894;15.542;2024-01-30T02:31:03;13.47;;;12.17;;
11568;SDS011;5840;46.894;15.542;2024-01-30T02:33:29;13.37;;;11.97;;
11568;SDS011;5840;46.894;15.542;2024-01-30T02:35:56;12.97;;;11.67;;
11568;SDS011;5840;46.894;15.542;2024-01-30T02:38:22;13.53;;;12.13;;
11568;SDS011;5840;46.894;15.542;2024-01-30T02:40:48;14.10;;;11.70;;
11568;SDS011;5840;46.894;15.542;2024-01-30T02:43:15;13.70;;;12.30;;
11568;SDS011;5840;46.894;15.542;2024-01-30T02:45:43;14.97;;;12.73;;
11568;SDS011;5840;46.894;15.542;2024-01-30T02:53:12;18.50;;;12.43;;
11568;SDS011;5840;46.894;15.542;2024-01-30T02:55:39;14.53;;;13.03;;
11568;SDS011;5840;46.894;15.542;2024-01-30T02:58:05;17.87;;;14.00;;
11568;SDS011;5840;46.894;15.542;2024-01-30T03:00:31;15.23;;;13.47;;
11568;SDS011;5840;46.894;15.542;2024-01-30T03:02:58;13.93;;;12.47;;
11568;SDS011;5840;46.894;15.542;2024-01-30T03:05:24;14.10;;;12.60;;
11568;SDS011;5840;46.894;15.542;2024-01-30T03:07:50;15.17;;;13.47;;
11568;SDS011;5840;46.894;15.542;2024-01-30T03:10:17;14.87;;;13.37;;
11568;SDS011;5840;46.894;15.542;2024-01-30T03:20:12;15.37;;;13.70;;
11568;SDS011;5840;46.894;15.542;2024-01-30T03:22:39;14.83;;;13.30;;
11568;SDS011;5840;46.894;15.542;2024-01-30T03:25:05;13.90;;;12.50;;
11568;SDS011;5840;46.894;15.542;2024-01-30T03:27:32;14.17;;;12.80;;
11568;SDS011;5840;46.894;15.542;2024-01-30T03:29:58;14.37;;;13.10;;
11568;SDS011;5840;46.894;15.542;2024-01-30T03:32:24;15.30;;;12.60;;
11568;SDS011;5840;46.894;15.542;2024-01-30T03:34:50;13.57;;;12.23;;
11568;SDS011;5840;46.894;15.542;2024-01-30T03:37:17;15.03;;;12.27;;
11568;SDS011;5840;46.894;15.542;2024-01-30T03:44:46;13.37;;;12.00;;
11568;SDS011;5840;46.894;15.542;2024-01-30T03:47:13;14.03;;;12.73;;
11568;SDS011;5840;46.894;15.542;2024-01-30T03:49:39;14.90;;;13.00;;
11568;SDS011;5840;46.894;15.542;2024-01-30T03:52:06;14.00;;;12.27;;
11568;SDS011;5840;46.894;15.542;2024-01-30T03:54:32;15.50;;;14.00;;
11568;SDS011;5840;46.894;15.542;2024-01-30T03:56:58;15.33;;;13.93;;
11568;SDS011;5840;46.894;15.542;2024-01-30T03:59:24;15.57;;;14.13;;
11568;SDS011;5840;46.894;15.542;2024-01-30T04:04:29;15.00;;;13.03;;
11568;SDS011;5840;46.894;15.542;2024-01-30T04:06:56;14.10;;;12.80;;
11568;SDS011;5840;46.894;15.542;2024-01-30T04:09:22;14.77;;;13.17;;
11568;SDS011;5840;46.894;15.542;2024-01-30T04:11:48;14.53;;;13.23;;
11568;SDS011;5840;46.894;15.542;2024-01-30T04:14:14;14.93;;;13.43;;
11568;SDS011;5840;46.894;15.542;2024-01-30T04:16:40;15.53;;;14.03;;
11568;SDS011;5840;46.894;15.542;2024-01-30T04:19:07;16.20;;;14.60;;
11568;SDS011;5840;46.894;15.542;2024-01-30T04:24:11;17.53;;;15.73;;
11568;SDS011;5840;46.894;15.542;2024-01-30T04:26:37;15.83;;;14.23;;
11568;SDS011;5840;46.894;15.542;2024-01-30T04:29:03;88.53;;;62.23;;
11568;SDS011;5840;46.894;15.542;2024-01-30T04:31:29;135.63;;;91.07;;
11568;SDS011;5840;46.894;15.542;2024-01-30T04:33:56;38.93;;;29.40;;
11568;SDS011;5840;46.894;15.542;2024-01-30T04:36:22;17.80;;;15.10;;
11568;SDS011;5840;46.894;15.542;2024-01-30T04:38:48;16.83;;;14.63;;
11568;SDS011;5840;46.894;15.542;2024-01-30T04:41:15;15.50;;;13.80;;
11568;SDS011;5840;46.894;15.542;2024-01-30T04:51:05;14.53;;;13.03;;
11568;SDS011;5840;46.894;15.542;2024-01-30T04:53:31;14.87;;;13.30;;
11568;SDS011;5840;46.894;15.542;2024-01-30T04:55:58;16.20;;;14.50;;
11568;SDS011;5840;46.894;15.542;2024-01-30T04:58:24;16.57;;;14.80;;
11568;SDS011;5840;46.894;15.542;2024-01-30T05:00:50;14.37;;;12.97;;
11568;SDS011;5840;46.894;15.542;2024-01-30T05:03:17;15.40;;;13.80;;
11568;SDS011;5840;46.894;15.542;2024-01-30T05:05:43;15.23;;;13.73;;
11568;SDS011;5840;46.894;15.542;2024-01-30T05:08:10;16.40;;;14.80;;
11568;SDS011;5840;46.894;15.542;2024-01-30T05:18:05;16.03;;;14.00;;
11568;SDS011;5840;46.894;15.542;2024-01-30T05:20:31;15.07;;;13.53;;
11568;SDS011;5840;46.894;15.542;2024-01-30T05:22:58;15.03;;;13.47;;
11568;SDS011;5840;46.894;15.542;2024-01-30T05:25:24;15.50;;;13.83;;
11568;SDS011;5840;46.894;15.542;2024-01-30T05:27:50;15.83;;;14.13;;
11568;SDS011;5840;46.894;15.542;2024-01-30T05:30:16;19.13;;;15.50;;
11568;SDS011;5840;46.894;15.542;2024-01-30T05:32:43;17.40;;;15.63;;
11568;SDS011;5840;46.894;15.542;2024-01-30T05:35:10;16.20;;;14.53;;
11568;SDS011;5840;46.894;15.542;2024-01-30T05:42:39;22.23;;;17.60;;
11568;SDS011;5840;46.894;15.542;2024-01-30T05:45:06;24.40;;;21.77;;
11568;SDS011;5840;46.894;15.542;2024-01-30T05:47:33;20.73;;;18.60;;
11568;SDS011;5840;46.894;15.542;2024-01-30T05:49:59;19.90;;;17.80;;
11568;SDS011;5840;46.894;15.542;2024-01-30T05:52:25;22.57;;;19.57;;
11568;SDS011;5840;46.894;15.542;2024-01-30T05:54:51;24.10;;;21.60;;
11568;SDS011;5840;46.894;15.542;2024-01-30T05:57:18;27.83;;;24.73;;
11568;SDS011;5840;46.894;15.542;2024-01-30T05:59:45;25.03;;;21.93;;
11568;SDS011;5840;46.894;15.542;2024-01-30T06:07:15;21.77;;;19.67;;
11568;SDS011;5840;46.894;15.542;2024-01-30T06:09:42;20.70;;;18.67;;
11568;SDS011;5840;46.894;15.542;2024-01-30T06:12:08;20.07;;;18.00;;
11568;SDS011;5840;46.894;15.542;2024-01-30T06:14:36;20.50;;;18.37;;
11568;SDS011;5840;46.894;15.542;2024-01-30T06:17:03;18.37;;;16.47;;
11568;SDS011;5840;46.894;15.542;2024-01-30T06:19:30;18.87;;;16.93;;
11568;SDS011;5840;46.894;15.542;2024-01-30T06:21:56;20.27;;;16.30;;
11568;SDS011;5840;46.894;15.542;2024-01-30T06:24:23;18.00;;;16.20;;
11568;SDS011;5840;46.894;15.542;2024-01-30T06:34:12;19.50;;;16.60;;
11568;SDS011;5840;46.894;15.542;2024-01-30T06:36:38;18.53;;;16.70;;
11568;SDS011;5840;46.894;15.542;2024-01-30T06:39:04;17.03;;;15.43;;
11568;SDS011;5840;46.894;15.542;2024-01-30T06:41:30;16.70;;;15.00;;
11568;SDS011;5840;46.894;15.542;2024-01-30T06:43:57;16.50;;;14.90;;
11568;SDS011;5840;46.894;15.542;2024-01-30T06:46:23;17.93;;;16.13;;
11568;SDS011;5840;46.894;15.542;2024-01-30T06:48:49;19.00;;;17.00;;
11568;SDS011;5840;46.894;15.542;2024-01-30T06:51:16;18.57;;;16.60;;
11568;SDS011;5840;46.894;15.542;2024-01-30T06:58:46;18.60;;;16.50;;
11568;SDS011;5840;46.894;15.542;2024-01-30T07:01:12;17.70;;;15.90;;
11568;SDS011;5840;46.894;15.542;2024-01-30T07:03:39;18.73;;;16.93;;
11568;SDS011;5840;46.894;15.542;2024-01-30T07:06:05;17.97;;;16.37;;
11568;SDS011;5840;46.894;15.542;2024-01-30T07:08:32;17.80;;;16.10;;
11568;SDS011;5840;46.894;15.542;2024-01-30T07:10:58;17.20;;;15.50;;
11568;SDS011;5840;46.894;15.542;2024-01-30T07:13:24;15.47;;;13.87;;
11568;SDS011;5840;46.894;15.542;2024-01-30T07:15:51;16.97;;;15.17;;
11568;SDS011;5840;46.894;15.542;2024-01-30T07:25:46;17.90;;;16.20;;
11568;SDS011;5840;46.894;15.542;2024-01-30T07:28:13;18.80;;;16.90;;
11568;SDS011;5840;46.894;15.542;2024-01-30T07:30:42;18.67;;;16.70;;
11568;SDS011;5840;46.894;15.542;2024-01-30T07:33:08;19.20;;;17.40;;
11568;SDS011;5840;46.894;15.542;2024-01-30T07:35:35;17.03;;;15.27;;
11568;SDS011;5840;46.894;15.542;2024-01-30T07:38:01;18.03;;;14.67;;
11568;SDS011;5840;46.894;15.542;2024-01-30T07:40:27;17.33;;;13.87;;
11568;SDS011;5840;46.894;15.542;2024-01-30T07:42:55;21.90;;;19.70;;
11568;SDS011;5840;46.894;15.542;2024-01-30T07:52:45;20.93;;;18.97;;
11568;SDS011;5840;46.894;15.542;2024-01-30T07:58:13;19.97;;;18.17;;
11568;SDS011;5840;46.894;15.542;2024-01-30T08:00:39;20.67;;;18.17;;
11568;SDS011;5840;46.894;15.542;2024-01-30T08:03:06;17.20;;;15.50;;
11568;SDS011;5840;46.894;15.542;2024-01-30T08:05:32;16.53;;;15.03;;
11568;SDS011;5840;46.894;15.542;2024-01-30T08:07:59;18.17;;;16.37;;
11568;SDS011;5840;46.894;15.542;2024-01-30T08:10:26;18.50;;;16.67;;
11568;SDS011;5840;46.894;15.542;2024-01-30T08:17:55;15.73;;;14.27;;
11568;SDS011;5840;46.894;15.542;2024-01-30T08:20:23;13.60;;;12.17;;
11568;SDS011;5840;46.894;15.542;2024-01-30T08:22:49;12.97;;;11.77;;
11568;SDS011;5840;46.894;15.542;2024-01-30T08:25:15;13.50;;;12.17;;
11568;SDS011;5840;46.894;15.542;2024-01-30T08:27:42;12.70;;;11.47;;
11568;SDS011;5840;46.894;15.542;2024-01-30T08:30:09;13.50;;;12.30;;
11568;SDS011;5840;46.894;15.542;2024-01-30T08:32:35;14.13;;;12.57;;
11568;SDS011;5840;46.894;15.542;2024-01-30T08:35:03;14.90;;;13.17;;
11568;SDS011;5840;46.894;15.542;2024-01-30T08:42:32;15.30;;;13.90;;
11568;SDS011;5840;46.894;15.542;2024-01-30T08:44:58;14.07;;;12.77;;
11568;SDS011;5840;46.894;15.542;2024-01-30T08:47:24;11.87;;;10.43;;
11568;SDS011;5840;46.894;15.542;2024-01-30T08:49:51;12.40;;;11.10;;
11568;SDS011;5840;46.894;15.542;2024-01-30T08:52:17;12.70;;;11.50;;
11568;SDS011;5840;46.894;15.542;2024-01-30T08:54:43;12.73;;;11.37;;
11568;SDS011;5840;46.894;15.542;2024-01-30T08:57:09;13.10;;;11.70;;
11568;SDS011;5840;46.894;15.542;2024-01-30T08:59:36;12.83;;;11.63;;
11568;SDS011;5840;46.894;15.542;2024-01-30T09:09:31;12.83;;;11.63;;
11568;SDS011;5840;46.894;15.542;2024-01-30T09:11:57;12.27;;;11.07;;
11568;SDS011;5840;46.894;15.542;2024-01-30T09:14:27;12.43;;;11.20;;
11568;SDS011;5840;46.894;15.542;2024-01-30T09:16:53;12.50;;;11.20;;
11568;SDS011;5840;46.894;15.542;2024-01-30T09:19:19;13.97;;;12.20;;
11568;SDS011;5840;46.894;15.542;2024-01-30T09:21:45;13.27;;;11.83;;
11568;SDS011;5840;46.894;15.542;2024-01-30T09:24:12;13.23;;;12.03;;
11568;SDS011;5840;46.894;15.542;2024-01-30T09:26:39;13.93;;;12.13;;
11568;SDS011;5840;46.894;15.542;2024-01-30T09:34:03;13.67;;;12.10;;
11568;SDS011;5840;46.894;15.542;2024-01-30T09:36:29;13.37;;;12.10;;
11568;SDS011;5840;46.894;15.542;2024-01-30T09:38:57;13.43;;;12.07;;
11568;SDS011;5840;46.894;15.542;2024-01-30T09:41:23;13.50;;;12.30;;
11568;SDS011;5840;46.894;15.542;2024-01-30T09:43:50;15.87;;;14.30;;
11568;SDS011;5840;46.894;15.542;2024-01-30T09:46:17;14.80;;;12.87;;
11568;SDS011;5840;46.894;15.542;2024-01-30T09:48:44;13.97;;;12.57;;
11568;SDS011;5840;46.894;15.542;2024-01-30T09:51:13;14.37;;;12.87;;
11568;SDS011;5840;46.894;15.542;2024-01-30T09:58:44;16.27;;;14.57;;
11568;SDS011;5840;46.894;15.542;2024-01-30T10:01:10;14.70;;;13.33;;
11568;SDS011;5840;46.894;15.542;2024-01-30T10:03:36;15.90;;;14.27;;
11568;SDS011;5840;46.894;15.542;2024-01-30T10:06:03;14.10;;;12.83;;
11568;SDS011;5840;46.894;15.542;2024-01-30T10:08:29;14.50;;;13.10;;
11568;SDS011;5840;46.894;15.542;2024-01-30T10:10:55;14.80;;;13.50;;
11568;SDS011;5840;46.894;15.542;2024-01-30T10:13:22;14.57;;;13.17;;
11568;SDS011;5840;46.894;15.542;2024-01-30T10:15:49;14.63;;;13.20;;
11568;SDS011;5840;46.894;15.542;2024-01-30T10:23:20;13.43;;;12.23;;
11568;SDS011;5840;46.894;15.542;2024-01-30T10:25:46;12.70;;;11.50;;
11568;SDS011;5840;46.894;15.542;2024-01-30T10:28:12;12.67;;;11.37;;
11568;SDS011;5840;46.894;15.542;2024-01-30T10:30:39;13.37;;;12.17;;
11568;SDS011;5840;46.894;15.542;2024-01-30T10:33:05;14.33;;;12.97;;
11568;SDS011;5840;46.894;15.542;2024-01-30T10:35:31;15.03;;;13.43;;
11568;SDS011;5840;46.894;15.542;2024-01-30T10:37:58;13.57;;;12.23;;
11568;SDS011;5840;46.894;15.542;2024-01-30T10:40:27;13.90;;;12.60;;
11568;SDS011;5840;46.894;15.542;2024-01-30T10:50:23;13.57;;;12.30;;
11568;SDS011;5840;46.894;15.542;2024-01-30T10:52:50;14.30;;;13.00;;
11568;SDS011;5840;46.894;15.542;2024-01-30T10:55:17;14.30;;;12.80;;
11568;SDS011;5840;46.894;15.542;2024-01-30T10:57:44;13.90;;;12.70;;
11568;SDS011;5840;46.894;15.542;2024-01-30T11:00:14;13.70;;;12.50;;
11568;SDS011;5840;46.894;15.542;2024-01-30T11:02:41;13.20;;;11.63;;
11568;SDS011;5840;46.894;15.542;2024-01-30T11:05:09;13.30;;;12.00;;
11568;SDS011;5840;46.894;15.542;2024-01-30T11:07:38;13.17;;;11.87;;
11568;SDS011;5840;46.894;15.542;2024-01-30T11:17:29;14.73;;;10.87;;
11568;SDS011;5840;46.894;15.542;2024-01-30T11:20:09;11.50;;;10.30;;
11568;SDS011;5840;46.894;15.542;2024-01-30T11:22:37;11.63;;;10.63;;
11568;SDS011;5840;46.894;15.542;2024-01-30T11:25:03;12.27;;;11.00;;
11568;SDS011;5840;46.894;15.542;2024-01-30T11:27:30;13.03;;;11.73;;
11568;SDS011;5840;46.894;15.542;2024-01-30T11:30:00;12.57;;;11.37;;
11568;SDS011;5840;46.894;15.542;2024-01-30T11:32:27;12.97;;;11.70;;
11568;SDS011;5840;46.894;15.542;2024-01-30T11:34:54;12.67;;;11.50;;
11568;SDS011;5840;46.894;15.542;2024-01-30T11:42:24;12.10;;;10.90;;
11568;SDS011;5840;46.894;15.542;2024-01-30T11:44:52;12.37;;;11.20;;
11568;SDS011;5840;46.894;15.542;2024-01-30T11:47:18;11.20;;;10.20;;
11568;SDS011;5840;46.894;15.542;2024-01-30T11:49:45;12.50;;;11.40;;
11568;SDS011;5840;46.894;15.542;2024-01-30T11:52:11;12.17;;;11.07;;
11568;SDS011;5840;46.894;15.542;2024-01-30T11:54:39;13.43;;;11.77;;
11568;SDS011;5840;46.894;15.542;2024-01-30T11:57:05;12.30;;;11.30;;
11568;SDS011;5840;46.894;15.542;2024-01-30T11:59:32;13.13;;;11.87;;
11568;SDS011;5840;46.894;15.542;2024-01-30T12:07:02;13.83;;;12.13;;
11568;SDS011;5840;46.894;15.542;2024-01-30T12:09:28;13.87;;;12.47;;
11568;SDS011;5840;46.894;15.542;2024-01-30T12:11:54;13.67;;;12.30;;
11568;SDS011;5840;46.894;15.542;2024-01-30T12:14:22;13.87;;;12.63;;
11568;SDS011;5840;46.894;15.542;2024-01-30T12:16:50;13.33;;;12.13;;
11568;SDS011;5840;46.894;15.542;2024-01-30T12:19:22;13.57;;;12.47;;
11568;SDS011;5840;46.894;15.542;2024-01-30T12:21:53;14.07;;;12.77;;
11568;SDS011;5840;46.894;15.542;2024-01-30T12:24:21;13.83;;;12.50;;
11568;SDS011;5840;46.894;15.542;2024-01-30T12:31:53;13.40;;;12.10;;
11568;SDS011;5840;46.894;15.542;2024-01-30T12:34:19;13.80;;;12.47;;
11568;SDS011;5840;46.894;15.542;2024-01-30T12:36:46;13.80;;;12.50;;
11568;SDS011;5840;46.894;15.542;2024-01-30T12:39:13;14.30;;;12.90;;
11568;SDS011;5840;46.894;15.542;2024-01-30T12:41:40;13.60;;;12.23;;
11568;SDS011;5840;46.894;15.542;2024-01-30T12:44:06;12.93;;;11.77;;
11568;SDS011;5840;46.894;15.542;2024-01-30T12:46:33;13.30;;;12.13;;
11568;SDS011;5840;46.894;15.542;2024-01-30T12:49:01;13.70;;;12.30;;
11568;SDS011;5840;46.894;15.542;2024-01-30T12:56:31;14.80;;;13.50;;
11568;SDS011;5840;46.894;15.542;2024-01-30T12:58:57;14.13;;;12.83;;
11568;SDS011;5840;46.894;15.542;2024-01-30T13:01:23;13.90;;;12.43;;
11568;SDS011;5840;46.894;15.542;2024-01-30T13:03:49;14.10;;;12.80;;
11568;SDS011;5840;46.894;15.542;2024-01-30T13:06:16;13.87;;;12.67;;
11568;SDS011;5840;46.894;15.542;2024-01-30T13:08:42;14.57;;;13.27;;
11568;SDS011;5840;46.894;15.542;2024-01-30T13:11:08;14.53;;;13.20;;
11568;SDS011;5840;46.894;15.542;2024-01-30T13:13:35;14.60;;;13.40;;
11568;SDS011;5840;46.894;15.542;2024-01-30T13:23:25;14.80;;;13.33;;
11568;SDS011;5840;46.894;15.542;2024-01-30T13:25:51;15.23;;;13.80;;
11568;SDS011;5840;46.894;15.542;2024-01-30T13:28:19;14.70;;;13.33;;
11568;SDS011;5840;46.894;15.542;2024-01-30T13:30:45;14.20;;;13.00;;
11568;SDS011;5840;46.894;15.542;2024-01-30T13:33:11;15.57;;;14.17;;
11568;SDS011;5840;46.894;15.542;2024-01-30T13:35:37;14.33;;;12.97;;
11568;SDS011;5840;46.894;15.542;2024-01-30T13:38:04;13.70;;;12.50;;
11568;SDS011;5840;46.894;15.542;2024-01-30T13:40:31;14.83;;;13.43;;
11568;SDS011;5840;46.894;15.542;2024-01-30T13:50:21;14.53;;;13.33;;
11568;SDS011;5840;46.894;15.542;2024-01-30T13:52:47;15.53;;;14.13;;
11568;SDS011;5840;46.894;15.542;2024-01-30T13:55:13;16.10;;;14.63;;
11568;SDS011;5840;46.894;15.542;2024-01-30T13:57:40;17.53;;;15.83;;
11568;SDS011;5840;46.894;15.542;2024-01-30T14:00:06;19.53;;;17.50;;
11568;SDS011;5840;46.894;15.542;2024-01-30T14:02:34;17.87;;;16.03;;
11568;SDS011;5840;46.894;15.542;2024-01-30T14:05:00;18.50;;;16.80;;
11568;SDS011;5840;46.894;15.542;2024-01-30T14:07:27;19.47;;;17.67;;
11568;SDS011;5840;46.894;15.542;2024-01-30T14:17:17;19.30;;;17.40;;
11568;SDS011;5840;46.894;15.542;2024-01-30T14:19:43;20.83;;;18.83;;
11568;SDS011;5840;46.894;15.542;2024-01-30T14:22:10;20.00;;;18.20;;
11568;SDS011;5840;46.894;15.542;2024-01-30T14:24:36;25.00;;;22.67;;
11568;SDS011;5840;46.894;15.542;2024-01-30T14:27:02;28.80;;;26.10;;
11568;SDS011;5840;46.894;15.542;2024-01-30T14:29:28;25.17;;;22.87;;
11568;SDS011;5840;46.894;15.542;2024-01-30T14:31:55;23.77;;;21.67;;
11568;SDS011;5840;46.894;15.542;2024-01-30T14:34:23;25.70;;;23.60;;
11568;SDS011;5840;46.894;15.542;2024-01-30T14:44:13;21.60;;;19.70;;
11568;SDS011;5840;46.894;15.542;2024-01-30T14:46:39;22.03;;;19.97;;
11568;SDS011;5840;46.894;15.542;2024-01-30T14:49:05;22.03;;;19.93;;
11568;SDS011;5840;46.894;15.542;2024-01-30T14:51:33;22.70;;;20.57;;
11568;SDS011;5840;46.894;15.542;2024-01-30T14:53:59;22.00;;;19.90;;
11568;SDS011;5840;46.894;15.542;2024-01-30T14:56:25;21.70;;;19.63;;
11568;SDS011;5840;46.894;15.542;2024-01-30T14:58:52;22.20;;;19.90;;
11568;SDS011;5840;46.894;15.542;2024-01-30T15:01:19;23.00;;;20.83;;
11568;SDS011;5840;46.894;15.542;2024-01-30T15:08:48;24.03;;;21.73;;
11568;SDS011;5840;46.894;15.542;2024-01-30T15:11:15;23.77;;;21.50;;
11568;SDS011;5840;46.894;15.542;2024-01-30T15:13:41;24.53;;;22.13;;
11568;SDS011;5840;46.894;15.542;2024-01-30T15:16:07;23.07;;;20.87;;
11568;SDS011;5840;46.894;15.542;2024-01-30T15:18:34;23.43;;;21.20;;
11568;SDS011;5840;46.894;15.542;2024-01-30T15:21:00;23.93;;;21.73;;
11568;SDS011;5840;46.894;15.542;2024-01-30T15:23:27;25.07;;;22.67;;
11568;SDS011;5840;46.894;15.542;2024-01-30T15:25:53;23.07;;;20.87;;
11568;SDS011;5840;46.894;15.542;2024-01-30T15:35:45;24.57;;;22.37;;
11568;SDS011;5840;46.894;15.542;2024-01-30T15:38:11;25.47;;;23.17;;
11568;SDS011;5840;46.894;15.542;2024-01-30T15:40:38;24.47;;;22.10;;
11568;SDS011;5840;46.894;15.542;2024-01-30T15:43:04;23.13;;;21.13;;
11568;SDS011;5840;46.894;15.542;2024-01-30T15:45:30;24.53;;;22.27;;
11568;SDS011;5840;46.894;15.542;2024-01-30T15:47:57;23.87;;;21.57;;
11568;SDS011;5840;46.894;15.542;2024-01-30T15:50:23;24.73;;;22.43;;
11568;SDS011;5840;46.894;15.542;2024-01-30T15:52:50;24.70;;;22.40;;
11568;SDS011;5840;46.894;15.542;2024-01-30T16:00:19;25.30;;;22.93;;
11568;SDS011;5840;46.894;15.542;2024-01-30T16:02:45;26.43;;;24.00;;
11568;SDS011;5840;46.894;15.542;2024-01-30T16:05:12;25.60;;;23.10;;
11568;SDS011;5840;46.894;15.542;2024-01-30T16:07:38;26.40;;;23.73;;
11568;SDS011;5840;46.894;15.542;2024-01-30T16:10:05;25.10;;;22.70;;
11568;SDS011;5840;46.894;15.542;2024-01-30T16:12:32;24.97;;;22.67;;
11568;SDS011;5840;46.894;15.542;2024-01-30T16:14:59;25.83;;;23.33;;
11568;SDS011;5840;46.894;15.542;2024-01-30T16:17:27;25.67;;;23.37;;
11568;SDS011;5840;46.894;15.542;2024-01-30T16:27:16;29.17;;;26.17;;
11568;SDS011;5840;46.894;15.542;2024-01-30T16:29:42;28.17;;;25.33;;
11568;SDS011;5840;46.894;15.542;2024-01-30T16:32:08;28.47;;;25.50;;
11568;SDS011;5840;46.894;15.542;2024-01-30T16:34:34;29.10;;;26.30;;
11568;SDS011;5840;46.894;15.542;2024-01-30T16:37:01;26.27;;;23.73;;
11568;SDS011;5840;46.894;15.542;2024-01-30T16:39:27;28.47;;;25.83;;
11568;SDS011;5840;46.894;15.542;2024-01-30T16:41:53;28.03;;;25.43;;
11568;SDS011;5840;46.894;15.542;2024-01-30T16:44:20;27.63;;;25.03;;
11568;SDS011;5840;46.894;15.542;2024-01-30T16:54:16;29.30;;;26.43;;
11568;SDS011;5840;46.894;15.542;2024-01-30T16:56:42;28.57;;;25.87;;
11568;SDS011;5840;46.894;15.542;2024-01-30T16:59:12;27.97;;;25.07;;
11568;SDS011;5840;46.894;15.542;2024-01-30T17:01:39;27.63;;;25.03;;
11568;SDS011;5840;46.894;15.542;2024-01-30T17:04:06;27.87;;;25.13;;
11568;SDS011;5840;46.894;15.542;2024-01-30T17:06:32;29.43;;;26.43;;
11568;SDS011;5840;46.894;15.542;2024-01-30T17:08:58;28.67;;;25.63;;
11568;SDS011;5840;46.894;15.542;2024-01-30T17:11:25;27.77;;;25.17;;
11568;SDS011;5840;46.894;15.542;2024-01-30T17:18:55;28.63;;;25.93;;
11568;SDS011;5840;46.894;15.542;2024-01-30T17:21:21;28.40;;;25.43;;
11568;SDS011;5840;46.894;15.542;2024-01-30T17:23:48;28.10;;;25.37;;
11568;SDS011;5840;46.894;15.542;2024-01-30T17:26:14;29.23;;;26.27;;
11568;SDS011;5840;46.894;15.542;2024-01-30T17:28:40;28.10;;;25.50;;
11568;SDS011;5840;46.894;15.542;2024-01-30T17:31:07;30.37;;;27.40;;
11568;SDS011;5840;46.894;15.542;2024-01-30T17:33:33;31.57;;;28.33;;
11568;SDS011;5840;46.894;15.542;2024-01-30T17:36:00;29.70;;;26.87;;
11568;SDS011;5840;46.894;15.542;2024-01-30T17:45:56;31.17;;;28.07;;
11568;SDS011;5840;46.894;15.542;2024-01-30T17:48:24;32.43;;;29.00;;
11568;SDS011;5840;46.894;15.542;2024-01-30T17:50:50;31.10;;;28.07;;
11568;SDS011;5840;46.894;15.542;2024-01-30T17:53:16;30.43;;;27.43;;
11568;SDS011;5840;46.894;15.542;2024-01-30T17:55:43;30.57;;;27.47;;
11568;SDS011;5840;46.894;15.542;2024-01-30T17:58:09;30.77;;;27.73;;
11568;SDS011;5840;46.894;15.542;2024-01-30T18:00:35;31.00;;;28.00;;
11568;SDS011;5840;46.894;15.542;2024-01-30T18:03:03;30.03;;;27.20;;
11568;SDS011;5840;46.894;15.542;2024-01-30T18:12:59;30.33;;;27.43;;
11568;SDS011;5840;46.894;15.542;2024-01-30T18:15:26;30.90;;;28.07;;
11568;SDS011;5840;46.894;15.542;2024-01-30T18:17:52;31.37;;;28.20;;
11568;SDS011;5840;46.894;15.542;2024-01-30T18:20:18;27.77;;;25.10;;
11568;SDS011;5840;46.894;15.542;2024-01-30T18:22:45;27.40;;;24.80;;
11568;SDS011;5840;46.894;15.542;2024-01-30T18:25:11;29.40;;;26.60;;
11568;SDS011;5840;46.894;15.542;2024-01-30T18:27:37;30.43;;;27.43;;
11568;SDS011;5840;46.894;15.542;2024-01-30T18:30:05;30.47;;;27.27;;
11568;SDS011;5840;46.894;15.542;2024-01-30T18:37:36;31.73;;;28.63;;
11568;SDS011;5840;46.894;15.542;2024-01-30T18:40:03;32.30;;;28.93;;
11568;SDS011;5840;46.894;15.542;2024-01-30T18:42:30;30.87;;;27.77;;